Time;durP1;ratioP1;P1;durP2;ratioP2;P2;SDS_P1;SDS_P2;PMS_P1;PMS_P2;Temp;Humidity;BMP_temperature;BMP_pressure;BME280_temperature;BME280_humidity;BME280_pressure;Samples;Min_cycle;Max_cycle;Signal;HPM_P1;HPM_P2
2022/07/14 00:00:55;;;;;;;14.88;10.00;;;;;;;18.09;84.16;99035.13;5103862;28;20418;-65
2022/07/14 00:03:21;;;;;;;13.60;9.63;;;;;;;18.17;84.53;99039.06;5102608;28;20032;-65
2022/07/14 00:05:46;;;;;;;14.00;10.57;;;;;;;18.06;85.24;99037.94;5103962;28;20027;-66
2022/07/14 00:08:12;;;;;;;12.98;10.07;;;;;;;18.14;84.88;99034.84;5103847;28;20027;-66
2022/07/14 00:10:38;;;;;;;16.08;12.27;;;;;;;18.06;85.54;99035.34;5103922;28;20028;-66
2022/07/14 00:13:03;;;;;;;13.15;11.20;;;;;;;18.15;85.63;99019.97;5103571;28;20035;-66
2022/07/14 00:15:30;;;;;;;16.45;11.27;;;;;;;18.15;85.70;99020.81;5101753;28;20015;-66
2022/07/14 00:17:58;;;;;;;14.50;11.20;;;;;;;18.21;85.26;99019.56;5103774;28;20035;-66
2022/07/14 00:20:24;;;;;;;12.95;10.70;;;;;;;18.24;85.39;99027.22;5103544;28;20031;-66
2022/07/14 00:22:50;;;;;;;13.32;10.80;;;;;;;18.18;85.16;99033.72;5103586;28;20031;-67
2022/07/14 00:25:15;;;;;;;12.15;10.00;;;;;;;18.20;85.04;99026.59;5103368;28;20246;-67
2022/07/14 00:27:41;;;;;;;13.73;10.75;;;;;;;18.24;85.53;99022.84;5103082;28;20036;-67
2022/07/14 00:30:07;;;;;;;12.75;10.32;;;;;;;18.22;85.32;99024.72;5103832;28;20043;-67
2022/07/14 00:32:36;;;;;;;11.60;10.23;;;;;;;18.18;85.77;99009.28;5103192;28;20020;-67
2022/07/14 00:35:05;;;;;;;14.48;10.65;;;;;;;18.18;85.05;98998.81;5103282;28;20319;-67
2022/07/14 00:37:31;;;;;;;14.52;11.05;;;;;;;18.32;85.64;99003.16;5103224;28;20088;-67
2022/07/14 00:39:56;;;;;;;16.63;10.55;;;;;;;18.28;85.19;99003.38;5102817;28;20051;-66
2022/07/14 00:42:33;;;;;;;12.50;11.20;;;;;;;18.28;85.27;99005.13;5102963;28;20333;-65
2022/07/14 00:45:10;;;;;;;14.80;10.48;;;;;;;18.10;84.99;98965.25;5102215;28;20023;-65
2022/07/14 00:47:36;;;;;;;12.10;10.77;;;;;;;18.25;85.56;98995.69;5097680;28;20036;-67
2022/07/14 00:50:05;;;;;;;18.55;11.52;;;;;;;17.97;85.61;98957.31;5103443;28;20047;-67
2022/07/14 00:52:31;;;;;;;12.55;11.35;;;;;;;18.20;85.99;98994.28;5102645;28;20036;-67
2022/07/14 00:54:57;;;;;;;12.82;10.65;;;;;;;18.24;85.28;98990.53;5102941;28;20024;-67
2022/07/14 00:57:24;;;;;;;12.70;11.27;;;;;;;18.17;85.48;98984.88;5102920;28;20032;-67
2022/07/14 00:59:50;;;;;;;16.90;11.00;;;;;;;18.22;85.68;98981.94;5102874;28;20197;-67
2022/07/14 01:02:18;;;;;;;14.00;11.00;;;;;;;18.21;85.96;98985.50;5101684;28;20016;-67
2022/07/14 01:04:45;;;;;;;14.15;10.82;;;;;;;18.25;86.20;98979.13;5102626;28;20028;-67
2022/07/14 01:07:12;;;;;;;16.52;11.07;;;;;;;18.26;85.56;98978.19;5101751;28;20336;-67
2022/07/14 01:09:38;;;;;;;15.75;10.73;;;;;;;18.29;85.55;98972.75;5102731;28;20080;-67
2022/07/14 01:12:05;;;;;;;14.93;10.65;;;;;;;18.31;85.51;98972.63;5102501;28;20080;-67
2022/07/14 01:14:30;;;;;;;15.45;11.48;;;;;;;18.32;85.59;98969.91;5101485;28;20243;-67
2022/07/14 01:16:57;;;;;;;18.98;11.18;;;;;;;18.33;85.85;98963.75;5102630;28;20039;-67
2022/07/14 01:19:23;;;;;;;12.52;11.18;;;;;;;18.32;86.06;98954.19;5102574;28;20027;-67
2022/07/14 01:21:54;;;;;;;13.25;10.65;;;;;;;18.37;85.63;98959.97;5102559;28;20059;-67
2022/07/14 01:24:21;;;;;;;14.82;11.10;;;;;;;18.38;85.46;98958.19;5102357;28;20031;-67
2022/07/14 01:26:46;;;;;;;11.90;10.70;;;;;;;18.35;85.49;98953.97;5102315;28;20052;-67
2022/07/14 01:29:12;;;;;;;15.40;11.63;;;;;;;18.39;85.40;98965.94;5083776;28;20112;-66
2022/07/14 01:31:38;;;;;;;17.40;10.48;;;;;;;18.40;85.37;98972.06;5102186;28;20028;-66
2022/07/14 01:34:04;;;;;;;14.77;10.55;;;;;;;18.37;85.19;98970.47;5102457;28;20028;-65
2022/07/14 01:36:29;;;;;;;15.45;10.38;;;;;;;18.40;85.33;98966.81;5102289;28;20080;-65
2022/07/14 01:38:55;;;;;;;15.73;10.70;;;;;;;18.41;85.60;98968.47;5102191;28;20031;-65
2022/07/14 01:41:21;;;;;;;13.60;9.75;;;;;;;18.42;84.88;98960.50;5102187;28;20392;-65
2022/07/14 01:43:48;;;;;;;13.13;10.68;;;;;;;18.41;85.47;98958.84;5102223;28;20028;-65
2022/07/14 01:46:14;;;;;;;10.80;9.70;;;;;;;18.35;85.28;98951.34;5102141;28;20016;-66
2022/07/14 01:48:39;;;;;;;12.10;10.80;;;;;;;18.45;85.20;98957.72;5102271;28;20347;-66
2022/07/14 01:51:05;;;;;;;11.52;9.95;;;;;;;18.48;85.84;98958.44;5102348;28;20031;-66
2022/07/14 01:53:31;;;;;;;10.88;9.68;;;;;;;18.51;85.58;98948.56;5104252;28;20024;-67
2022/07/14 01:55:58;;;;;;;12.18;10.38;;;;;;;18.49;84.80;98949.63;5106407;28;20216;-66
2022/07/14 01:58:24;;;;;;;16.88;10.40;;;;;;;18.56;85.16;98950.91;5106240;28;20149;-66
2022/07/14 02:03:34;;;;;;;12.25;10.40;;;;;;;18.50;84.87;98925.94;5095437;28;20042;-66
2022/07/14 02:06:00;;;;;;;12.88;10.00;;;;;;;18.63;85.45;98939.06;5106255;28;20731;-65
2022/07/14 02:08:27;;;;;;;15.45;10.70;;;;;;;18.64;85.24;98940.75;5106240;28;20343;-65
2022/07/14 02:13:36;;;;;;;11.27;9.50;;;;;;;18.65;84.36;98941.56;5105894;28;20060;-66
2022/07/14 02:16:22;;;;;;;11.95;9.93;;;;;;;18.63;84.19;98934.63;5105393;28;20086;-65
2022/07/14 02:18:48;;;;;;;11.75;8.85;;;;;;;18.67;84.18;98940.53;5104785;28;20471;-65
2022/07/14 02:21:13;;;;;;;11.93;8.48;;;;;;;18.68;83.16;98950.06;5105792;28;20032;-66
2022/07/14 02:23:39;;;;;;;11.05;8.38;;;;;;;18.52;79.54;98960.75;5105992;28;20024;-66
2022/07/14 02:26:12;;;;;;;13.30;7.60;;;;;;;18.39;77.48;98908.28;5105632;28;20024;-64
2022/07/14 02:28:38;;;;;;;14.00;8.10;;;;;;;18.54;77.14;98968.50;5105771;28;20055;-64
2022/07/14 02:31:04;;;;;;;14.32;8.70;;;;;;;18.62;78.54;98964.44;5105546;28;20027;-64
2022/07/14 02:33:29;;;;;;;16.25;10.23;;;;;;;18.74;78.40;98965.41;5105672;28;20095;-64
2022/07/14 02:35:55;;;;;;;15.20;9.25;;;;;;;18.79;77.42;98963.31;5105651;28;20031;-65
2022/07/14 02:38:21;;;;;;;14.05;9.32;;;;;;;18.86;77.88;98960.28;5105256;28;20367;-65
2022/07/14 02:40:47;;;;;;;13.90;9.15;;;;;;;18.92;78.03;98962.50;5103868;28;20320;-66
2022/07/14 02:43:12;;;;;;;10.45;8.63;;;;;;;18.94;77.69;98961.47;5105289;28;20020;-64
2022/07/14 02:45:38;;;;;;;15.15;10.32;;;;;;;18.84;77.11;98960.38;5105116;28;20016;-64
2022/07/14 02:48:06;;;;;;;18.27;10.05;;;;;;;18.88;77.17;98966.28;5105428;28;20216;-65
2022/07/14 02:50:32;;;;;;;13.18;8.65;;;;;;;18.83;79.12;98974.44;5104794;28;20036;-65
2022/07/14 02:52:58;;;;;;;10.65;8.18;;;;;;;18.99;78.98;98991.81;5105239;28;20339;-65
2022/07/14 02:55:23;;;;;;;17.13;9.32;;;;;;;18.87;78.25;99007.44;5104874;28;20324;-65
2022/07/14 02:57:49;;;;;;;14.38;10.45;;;;;;;18.72;78.93;98993.50;5105416;28;20216;-65
2022/07/14 03:00:15;;;;;;;18.65;11.10;;;;;;;18.61;79.31;99001.25;5105004;28;20327;-66
2022/07/14 03:02:40;;;;;;;17.50;10.43;;;;;;;18.82;78.78;99008.66;5105104;28;20384;-65
2022/07/14 03:05:06;;;;;;;15.45;10.98;;;;;;;18.87;78.82;99011.81;5104676;28;20103;-65
2022/07/14 03:07:33;;;;;;;14.20;10.80;;;;;;;18.78;79.27;99015.88;5104882;28;20276;-66
2022/07/14 03:09:58;;;;;;;14.38;10.63;;;;;;;18.85;78.76;99016.31;5103842;28;20216;-65
2022/07/14 03:12:24;;;;;;;16.25;10.85;;;;;;;18.82;79.45;99006.03;5102682;28;20026;-65
2022/07/14 03:14:49;;;;;;;16.42;10.70;;;;;;;18.80;79.58;99001.72;5104426;28;20024;-66
2022/07/14 03:17:16;;;;;;;16.77;11.55;;;;;;;18.89;79.17;99000.28;5103867;28;20028;-66
2022/07/14 03:19:42;;;;;;;12.48;9.82;;;;;;;18.94;78.90;98998.22;5103516;28;20295;-67
2022/07/14 03:22:07;;;;;;;14.65;10.02;;;;;;;18.97;78.76;98997.16;5104722;28;20046;-66
2022/07/14 03:24:33;;;;;;;15.13;9.52;;;;;;;19.00;79.06;98983.84;5104453;28;20324;-67
2022/07/14 03:26:59;;;;;;;13.82;9.15;;;;;;;19.00;79.18;98969.84;5103286;28;20073;-65
2022/07/14 03:29:26;;;;;;;15.85;9.30;;;;;;;19.01;79.36;98969.78;5104387;28;20339;-66
2022/07/14 03:31:52;;;;;;;14.10;9.00;;;;;;;19.05;79.53;98968.59;5117578;28;20042;-66
2022/07/14 03:34:18;;;;;;;12.45;9.95;;;;;;;19.06;79.08;98959.78;5104545;28;20035;-66
2022/07/14 03:36:44;;;;;;;13.45;9.73;;;;;;;19.07;80.00;98952.75;5104537;28;20032;-66
2022/07/14 03:39:10;;;;;;;12.80;8.43;;;;;;;19.10;79.90;98952.56;5104225;28;20024;-66
2022/07/14 03:41:35;;;;;;;12.07;9.15;;;;;;;19.00;80.19;98939.22;5104120;28;20320;-66
2022/07/14 03:44:02;;;;;;;13.32;9.00;;;;;;;19.09;80.40;98949.06;5103912;28;20066;-67
2022/07/14 03:46:28;;;;;;;14.20;8.57;;;;;;;19.09;80.29;98940.38;5104002;28;20272;-66
2022/07/14 03:48:54;;;;;;;13.60;8.32;;;;;;;19.02;80.73;98939.13;5104326;28;20024;-66
2022/07/14 03:51:19;;;;;;;11.13;8.52;;;;;;;19.01;81.20;98940.91;5104055;28;20024;-66
2022/07/14 03:53:45;;;;;;;15.05;8.85;;;;;;;19.01;81.64;98943.53;5103984;28;20031;-66
2022/07/14 03:56:10;;;;;;;13.13;9.48;;;;;;;19.04;81.31;98938.06;5104116;28;20095;-66
2022/07/14 03:58:36;;;;;;;14.50;8.68;;;;;;;18.94;81.90;98929.13;5104164;28;20028;-66
2022/07/14 04:01:03;;;;;;;13.27;9.32;;;;;;;18.99;80.10;98932.28;5103910;28;20020;-66
2022/07/14 04:03:28;;;;;;;14.27;9.27;;;;;;;19.10;80.28;98928.94;5103725;28;20036;-66
2022/07/14 04:05:54;;;;;;;16.08;9.02;;;;;;;19.10;79.24;98940.25;5102885;28;20039;-66
2022/07/14 04:08:19;;;;;;;14.48;8.55;;;;;;;19.07;77.88;98931.75;5102818;28;20039;-66
2022/07/14 04:10:45;;;;;;;13.43;8.60;;;;;;;19.10;77.97;98935.00;5103894;28;20024;-66
2022/07/14 04:13:11;;;;;;;12.63;7.93;;;;;;;19.18;80.25;98929.22;5103838;28;20023;-67
2022/07/14 04:15:39;;;;;;;13.07;7.68;;;;;;;19.25;79.14;98922.63;5102681;28;20024;-68
2022/07/14 04:18:05;;;;;;;8.88;7.93;;;;;;;19.35;79.39;98916.72;5103836;28;20312;-67
2022/07/14 04:20:30;;;;;;;13.38;8.68;;;;;;;19.39;80.49;98912.94;5103430;28;20060;-68
2022/07/14 04:22:56;;;;;;;10.20;8.32;;;;;;;19.37;80.43;98905.16;5103721;28;20031;-68
2022/07/14 04:25:22;;;;;;;12.52;7.60;;;;;;;19.37;78.17;98899.06;5103272;28;20036;-66
2022/07/14 04:27:48;;;;;;;14.70;8.00;;;;;;;19.54;77.24;98905.72;5102486;28;20040;-67
2022/07/14 04:30:14;;;;;;;12.10;7.40;;;;;;;19.72;75.28;98914.94;5107627;28;20088;-67
2022/07/14 04:32:40;;;;;;;11.00;7.55;;;;;;;19.86;75.34;98913.16;5123814;28;20031;-67
2022/07/14 04:35:06;;;;;;;8.30;6.00;;;;;;;19.99;73.25;98911.28;5116334;28;20073;-66
2022/07/14 04:37:32;;;;;;;10.43;6.82;;;;;;;20.08;69.96;98902.75;5101603;28;20027;-66
2022/07/14 04:39:57;;;;;;;8.77;6.57;;;;;;;20.24;72.87;98899.81;5081633;28;20340;-66
2022/07/14 04:42:24;;;;;;;10.57;6.68;;;;;;;20.34;73.05;98899.97;5100952;28;20350;-66
2022/07/14 04:44:50;;;;;;;14.30;6.53;;;;;;;20.42;70.35;98896.75;5102862;28;20097;-67
2022/07/14 04:47:16;;;;;;;8.70;6.40;;;;;;;20.59;70.83;98898.94;5101622;28;20091;-67
2022/07/14 04:52:26;;;;;;;9.07;6.75;;;;;;;20.75;69.12;98896.03;5102763;28;20024;-66
2022/07/14 04:54:51;;;;;;;10.90;5.85;;;;;;;20.79;67.65;98886.94;5102883;28;20023;-66
2022/07/14 04:57:17;;;;;;;8.43;5.07;;;;;;;20.94;68.11;98892.00;5102660;28;20047;-66
2022/07/14 04:59:43;;;;;;;10.93;5.97;;;;;;;21.01;67.21;98888.75;5102682;28;20093;-66
2022/07/14 05:02:08;;;;;;;11.35;7.63;;;;;;;21.11;68.04;98885.41;5084169;28;20032;-67
2022/07/14 05:04:35;;;;;;;14.80;9.90;;;;;;;21.08;66.73;98878.59;5101875;28;20074;-67
2022/07/14 05:07:00;;;;;;;12.30;6.38;;;;;;;21.13;67.40;98872.94;5103298;28;20032;-67
2022/07/14 05:09:26;;;;;;;11.48;5.97;;;;;;;21.07;68.13;98862.91;5102721;28;20043;-67
2022/07/14 05:11:53;;;;;;;12.02;7.00;;;;;;;21.08;68.51;98861.94;5102871;28;20024;-67
2022/07/14 05:14:19;;;;;;;9.93;6.45;;;;;;;21.01;69.36;98846.63;5102369;28;20079;-68
2022/07/14 05:16:45;;;;;;;13.15;6.57;;;;;;;21.13;69.89;98854.50;5102529;28;20216;-68
2022/07/14 05:19:11;;;;;;;10.52;6.63;;;;;;;21.02;70.39;98844.81;5102738;28;20043;-67
2022/07/14 05:21:37;;;;;;;7.45;6.00;;;;;;;21.07;71.33;98863.72;5102357;28;20020;-67
2022/07/14 05:24:04;;;;;;;8.77;6.70;;;;;;;20.96;70.40;98858.47;5102346;28;20028;-66
2022/07/14 05:26:29;;;;;;;11.93;6.63;;;;;;;20.98;71.41;98860.03;5102280;28;20101;-66
2022/07/14 05:28:55;;;;;;;14.90;7.82;;;;;;;20.82;69.77;98856.91;5102263;28;20044;-68
2022/07/14 05:31:21;;;;;;;10.32;7.20;;;;;;;20.84;69.73;98855.84;5102446;28;20034;-67
2022/07/14 05:33:47;;;;;;;12.25;7.25;;;;;;;20.96;70.37;98855.84;5101834;28;20028;-67
2022/07/14 05:36:13;;;;;;;14.73;8.02;;;;;;;20.81;68.98;98857.88;5102194;28;20028;-68
2022/07/14 05:38:39;;;;;;;14.20;7.20;;;;;;;20.92;69.14;98851.75;5102248;28;20047;-66
2022/07/14 05:41:04;;;;;;;9.98;7.10;;;;;;;20.93;69.26;98859.53;5102101;28;20024;-67
2022/07/14 05:43:33;;;;;;;10.02;7.30;;;;;;;21.04;69.98;98856.91;5102462;28;20109;-68
2022/07/14 05:46:03;;;;;;;11.65;7.93;;;;;;;21.05;70.41;98852.50;5102162;28;20046;-67
2022/07/14 05:48:29;;;;;;;10.15;5.82;;;;;;;21.18;70.67;98849.72;5102355;28;20111;-67
2022/07/14 05:51:02;;;;;;;11.50;7.65;;;;;;;20.92;68.88;98796.47;5102176;28;20040;-67
2022/07/14 05:53:28;;;;;;;8.95;6.72;;;;;;;21.35;69.70;98838.69;5101033;28;20039;-67
2022/07/14 05:55:53;;;;;;;14.82;7.20;;;;;;;21.41;69.51;98839.16;5084127;28;20103;-67
2022/07/14 05:58:19;;;;;;;10.10;6.82;;;;;;;21.13;66.27;98849.25;5101870;28;20031;-66
2022/07/14 06:00:45;;;;;;;10.75;7.20;;;;;;;21.25;65.78;98842.16;5102296;28;20031;-65
2022/07/14 06:03:10;;;;;;;12.23;6.55;;;;;;;21.25;66.48;98840.38;5102054;28;20296;-66
2022/07/14 06:05:36;;;;;;;9.50;6.68;;;;;;;21.14;65.28;98835.97;5101820;28;20024;-66
2022/07/14 06:08:01;;;;;;;8.20;6.05;;;;;;;21.08;64.87;98831.19;5101085;28;20212;-68
2022/07/14 06:10:27;;;;;;;7.63;5.95;;;;;;;21.20;65.72;98830.19;5102143;28;20324;-68
2022/07/14 06:12:54;;;;;;;8.57;6.10;;;;;;;21.25;65.64;98826.34;5098975;28;20080;-67
2022/07/14 06:15:19;;;;;;;10.88;6.82;;;;;;;21.32;66.02;98825.78;5095735;28;20024;-67
2022/07/14 06:17:45;;;;;;;9.18;6.90;;;;;;;21.30;66.43;98818.94;5100616;28;20050;-68
2022/07/14 06:20:11;;;;;;;10.23;6.57;;;;;;;21.30;66.27;98813.66;5101958;28;20028;-69
2022/07/14 06:22:37;;;;;;;11.40;6.80;;;;;;;21.28;66.34;98794.53;5101414;28;20224;-68
2022/07/14 06:25:03;;;;;;;12.60;6.93;;;;;;;21.31;66.27;98804.81;5088336;28;20228;-68
2022/07/14 06:27:29;;;;;;;11.60;7.28;;;;;;;21.37;65.94;98801.69;5099634;28;20044;-69
2022/07/14 06:29:55;;;;;;;14.65;7.18;;;;;;;21.47;65.61;98804.41;5085442;28;20036;-68
2022/07/14 06:32:23;;;;;;;9.43;6.60;;;;;;;21.72;66.03;98798.03;5092644;28;20020;-65
2022/07/14 06:34:49;;;;;;;10.20;6.80;;;;;;;21.55;66.07;98786.22;5090649;28;20383;-66
2022/07/14 06:37:15;;;;;;;7.72;5.47;;;;;;;21.67;63.82;98801.00;5101997;28;20091;-66
2022/07/14 06:39:41;;;;;;;10.93;6.22;;;;;;;21.87;64.24;98798.53;5104251;28;20020;-69
2022/07/14 06:42:07;;;;;;;6.90;5.50;;;;;;;21.89;63.85;98794.81;5105497;28;20066;-69
2022/07/14 06:44:33;;;;;;;8.70;5.15;;;;;;;21.92;63.83;98793.72;5104384;28;20027;-69
2022/07/14 06:46:59;;;;;;;9.80;5.43;;;;;;;21.93;62.34;98800.66;5104952;28;20032;-68
2022/07/14 06:49:25;;;;;;;8.90;5.13;;;;;;;21.56;60.85;98777.34;5105325;28;20028;-70
2022/07/14 06:51:51;;;;;;;7.32;5.05;;;;;;;21.54;60.78;98800.34;5105012;28;20035;-67
2022/07/14 06:54:16;;;;;;;6.53;5.00;;;;;;;21.50;60.29;98788.34;5105130;28;20043;-68
2022/07/14 06:56:42;;;;;;;7.47;5.03;;;;;;;21.52;60.67;98804.88;5105092;28;20092;-67
2022/07/14 06:59:08;;;;;;;7.70;4.80;;;;;;;21.68;60.83;98807.13;5105109;28;20040;-68
2022/07/14 07:01:34;;;;;;;9.13;5.10;;;;;;;21.84;61.18;98798.78;5104994;28;20032;-68
2022/07/14 07:03:59;;;;;;;7.72;5.28;;;;;;;22.00;62.67;98793.09;5103800;28;20092;-69
2022/07/14 07:06:43;;;;;;;6.43;5.15;;;;;;;22.36;62.70;98786.53;5105109;28;20359;-69
2022/07/14 07:09:09;;;;;;;9.02;5.38;;;;;;;22.48;61.97;98789.94;5105030;28;20067;-69
2022/07/14 07:11:35;;;;;;;7.95;5.43;;;;;;;22.63;62.33;98790.44;5104726;28;20051;-70
2022/07/14 07:14:02;;;;;;;8.38;5.68;;;;;;;22.82;59.89;98786.22;5104882;28;20316;-69
2022/07/14 07:16:28;;;;;;;13.98;5.20;;;;;;;22.89;61.12;98769.69;5104562;28;20023;-70
2022/07/14 07:18:53;;;;;;;9.07;5.30;;;;;;;23.08;59.39;98776.81;5103686;28;20410;-69
2022/07/14 07:21:20;;;;;;;9.20;4.93;;;;;;;22.83;58.12;98750.88;5100256;28;20016;-68
2022/07/14 07:23:50;;;;;;;12.15;5.47;;;;;;;22.80;57.41;98782.84;5095788;28;20040;-68
2022/07/14 07:26:16;;;;;;;7.47;5.10;;;;;;;;;;5095773;28;20078;-71
2022/07/14 07:28:42;;;;;;;8.07;5.40;;;;;;;22.82;58.19;98787.03;5095751;28;20032;-69
2022/07/14 07:31:07;;;;;;;12.30;5.78;;;;;;;22.85;59.00;98783.28;5098211;28;20106;-67
2022/07/14 07:33:33;;;;;;;5.60;5.00;;;;;;;22.90;59.48;98789.00;5092212;28;20225;-68
2022/07/14 07:36:00;;;;;;;10.13;5.00;;;;;;;23.09;59.50;98775.03;5097210;28;20012;-69
2022/07/14 07:38:26;;;;;;;7.88;5.22;;;;;;;23.26;60.15;98770.91;5096161;28;20032;-69
2022/07/14 07:40:53;;;;;;;6.30;4.75;;;;;;;23.38;60.68;98774.25;5095799;28;20347;-70
2022/07/14 07:43:22;;;;;;;9.52;5.32;;;;;;;23.23;58.96;98771.16;5095680;28;20019;-71
2022/07/14 07:45:50;;;;;;;7.95;5.13;;;;;;;23.30;60.55;98792.59;5099905;28;20058;-70
2022/07/14 07:48:16;;;;;;;8.82;5.10;;;;;;;23.41;60.71;98797.75;5097467;28;20029;-70
2022/07/14 07:50:44;;;;;;;7.45;4.70;;;;;;;23.31;61.57;98781.88;5098494;28;20027;-70
2022/07/14 07:53:11;;;;;;;8.00;4.93;;;;;;;23.35;61.44;98790.41;5095749;28;20086;-70
2022/07/14 07:55:38;;;;;;;8.45;5.15;;;;;;;23.38;61.05;98787.47;5092522;28;20097;-70
2022/07/14 07:58:04;;;;;;;7.53;4.65;;;;;;;23.41;61.48;98782.72;5104182;28;20089;-72
2022/07/14 08:00:31;;;;;;;11.48;4.85;;;;;;;23.42;61.95;98773.00;5103616;28;20024;-70
2022/07/14 08:02:57;;;;;;;7.43;4.53;;;;;;;23.55;62.07;98773.56;5103010;28;20032;-71
2022/07/14 08:05:26;;;;;;;9.30;4.60;;;;;;;23.72;61.08;98769.41;5102039;28;20042;-72
2022/07/14 08:07:52;;;;;;;7.53;4.35;;;;;;;23.80;58.86;98763.44;5095108;28;20111;-69
2022/07/14 08:10:18;;;;;;;8.75;4.90;;;;;;;23.75;57.17;98763.81;5092684;28;20020;-69
2022/07/14 08:12:44;;;;;;;6.85;4.35;;;;;;;23.75;57.18;98758.53;5097263;28;20038;-69
2022/07/14 08:15:10;;;;;;;7.72;4.00;;;;;;;23.66;56.34;98747.97;5097787;28;20028;-70
2022/07/14 08:17:36;;;;;;;8.13;3.75;;;;;;;23.60;57.81;98746.72;5094832;28;20109;-69
2022/07/14 08:20:05;;;;;;;10.95;4.75;;;;;;;23.17;52.86;98693.28;5096031;28;20336;-68
2022/07/14 08:22:30;;;;;;;8.80;4.20;;;;;;;23.52;54.22;98739.50;5090308;28;20318;-68
2022/07/14 08:24:57;;;;;;;8.00;3.78;;;;;;;23.54;54.81;98748.09;5103647;28;20024;-70
2022/07/14 08:27:23;;;;;;;5.75;3.08;;;;;;;23.44;53.97;98741.97;5093836;28;20028;-70
2022/07/14 08:29:50;;;;;;;5.53;3.40;;;;;;;23.44;55.19;98745.47;5095199;28;20032;-69
2022/07/14 08:32:16;;;;;;;5.50;3.83;;;;;;;23.46;55.08;98736.56;5094306;28;20031;-69
2022/07/14 08:34:42;;;;;;;5.03;3.78;;;;;;;23.38;55.30;98731.97;5098394;28;20216;-69
2022/07/14 08:37:07;;;;;;;8.18;4.13;;;;;;;23.47;55.01;98735.59;5102220;28;20035;-69
2022/07/14 08:39:33;;;;;;;7.72;4.05;;;;;;;23.65;54.69;98738.38;5102164;28;20031;-69
2022/07/14 08:42:03;;;;;;;8.52;3.97;;;;;;;23.42;52.66;98696.38;5102291;28;20035;-68
2022/07/14 08:44:29;;;;;;;9.23;4.35;;;;;;;23.88;53.60;98731.81;5102172;28;20221;-69
2022/07/14 08:46:56;;;;;;;9.45;3.80;;;;;;;24.06;54.14;98728.47;5102711;28;20081;-69
2022/07/14 08:49:22;;;;;;;11.57;4.45;;;;;;;23.85;52.49;98718.88;5102455;28;20050;-70
2022/07/14 08:51:49;;;;;;;9.73;4.88;;;;;;;23.73;51.90;98712.91;5102515;28;20027;-72
2022/07/14 08:54:16;;;;;;;11.10;4.80;;;;;;;23.74;52.31;98713.72;5100072;28;20130;-71
2022/07/14 08:56:42;;;;;;;7.47;3.67;;;;;;;23.88;53.77;98710.66;5102541;28;20050;-71
2022/07/14 08:59:09;;;;;;;6.47;3.83;;;;;;;23.94;54.69;98707.47;5102181;28;20019;-69
2022/07/14 09:01:36;;;;;;;9.75;4.95;;;;;;;23.98;53.61;98704.53;5102011;28;20036;-69
2022/07/14 09:04:02;;;;;;;5.65;4.55;;;;;;;24.15;54.26;98695.03;5102548;28;20024;-69
2022/07/14 09:06:47;;;;;;;5.57;3.55;;;;;;;24.28;56.09;98695.53;5100649;28;20051;-69
2022/07/14 09:09:18;;;;;;;13.18;4.78;;;;;;;24.00;53.31;98641.72;5101907;28;20032;-69
2022/07/14 09:12:10;;;;;;;7.68;4.50;;;;;;;24.23;51.14;98679.28;5102379;28;20313;-69
2022/07/14 09:17:25;;;;;;;8.68;4.50;;;;;;;23.84;48.55;98640.50;5102295;28;19924;-68
2022/07/14 09:20:20;;;;;;;6.20;3.80;;;;;;;24.11;49.83;98670.66;5102815;28;20046;-68
2022/07/14 09:22:46;;;;;;;8.20;4.50;;;;;;;24.24;50.00;98660.59;5082985;28;20332;-67
2022/07/14 09:25:17;;;;;;;5.28;4.10;;;;;;;24.33;50.78;98666.81;5101978;28;20028;-68
2022/07/14 09:27:48;;;;;;;5.97;4.18;;;;;;;24.51;51.24;98648.31;5102548;28;20048;-67
2022/07/14 09:30:15;;;;;;;10.55;4.28;;;;;;;24.33;50.45;98645.66;5106823;28;20027;-68
2022/07/14 09:32:58;;;;;;;7.45;3.97;;;;;;;24.61;52.52;98640.34;5102438;28;20024;-67
2022/07/14 09:35:34;;;;;;;7.45;4.20;;;;;;;24.38;51.34;98595.72;5102198;28;20055;-67
2022/07/14 09:38:01;;;;;;;6.45;4.38;;;;;;;24.51;51.35;98636.91;5102377;28;20023;-65
2022/07/14 09:40:30;;;;;;;9.35;4.55;;;;;;;24.39;52.01;98618.59;5102499;28;20024;-67
2022/07/14 09:43:04;;;;;;;8.40;4.13;;;;;;;24.50;51.70;98622.84;5102271;28;20028;-66
2022/07/14 09:45:31;;;;;;;10.25;4.68;;;;;;;24.57;51.06;98625.72;5102065;28;20028;-65
2022/07/14 09:48:10;;;;;;;7.68;4.45;;;;;;;24.62;51.10;98629.63;5102433;28;20031;-66
2022/07/14 09:50:47;;;;;;;11.25;4.55;;;;;;;24.49;52.01;98620.34;5102427;28;20020;-66
2022/07/14 09:53:25;;;;;;;7.70;4.40;;;;;;;24.47;51.28;98623.16;5101836;28;20057;-65
2022/07/14 09:55:58;;;;;;;8.20;3.90;;;;;;;24.65;53.29;98615.25;5099739;28;20032;-66
2022/07/14 09:58:26;;;;;;;5.90;3.38;;;;;;;24.77;53.07;98610.56;5101600;28;20090;-65
2022/07/14 10:00:55;;;;;;;8.13;3.50;;;;;;;24.70;50.34;98614.78;5102032;28;20138;-65
2022/07/14 10:03:21;;;;;;;8.93;3.90;;;;;;;24.60;48.29;98606.94;5102018;28;20039;-65
2022/07/14 10:05:49;;;;;;;4.93;3.22;;;;;;;24.48;48.63;98585.09;5101048;28;20020;-65
2022/07/14 10:08:16;;;;;;;4.45;3.25;;;;;;;24.49;48.65;98609.75;5100142;28;20028;-64
2022/07/14 10:10:42;;;;;;;6.35;3.35;;;;;;;24.50;49.11;98599.03;5101443;28;20016;-65
2022/07/14 10:13:08;;;;;;;4.47;2.90;;;;;;;24.46;49.28;98609.06;5101480;28;20389;-65
2022/07/14 10:15:34;;;;;;;5.43;3.03;;;;;;;24.50;49.00;98604.31;5104684;28;20028;-65
2022/07/14 10:18:02;;;;;;;5.32;3.90;;;;;;;24.50;47.75;98606.97;5105726;28;20308;-67
2022/07/14 10:20:29;;;;;;;5.65;3.35;;;;;;;24.54;47.65;98605.69;5103990;28;20024;-65
2022/07/14 10:22:56;;;;;;;7.85;3.60;;;;;;;24.71;50.55;98605.88;5104911;28;20020;-65
2022/07/14 10:25:22;;;;;;;3.97;3.05;;;;;;;24.75;51.19;98597.47;5105861;28;20324;-65
2022/07/14 10:27:48;;;;;;;5.90;3.03;;;;;;;24.83;50.89;98596.72;5105948;28;20097;-65
2022/07/14 10:30:15;;;;;;;5.22;3.65;;;;;;;24.88;50.41;98601.56;5105941;28;20154;-65
2022/07/14 10:33:06;;;;;;;4.70;2.90;;;;;;;24.96;49.90;98599.81;5104904;28;20348;-66
2022/07/14 10:36:01;;;;;;;5.15;2.80;;;;;;;24.85;47.41;98592.09;5096344;28;20039;-67
2022/07/14 10:38:34;;;;;;;3.05;2.67;;;;;;;24.80;47.91;98592.56;5100076;28;20254;-68
2022/07/14 10:41:16;;;;;;;4.18;2.72;;;;;;;25.07;49.21;98584.66;5104718;28;20052;-67
2022/07/14 10:44:10;;;;;;;5.70;3.20;;;;;;;24.89;47.58;98579.41;5104444;28;20305;-68
2022/07/14 10:46:42;;;;;;;4.93;3.17;;;;;;;24.79;47.95;98540.56;5105268;28;20028;-68
2022/07/14 10:49:09;;;;;;;4.70;3.20;;;;;;;24.70;49.66;98524.75;5104199;28;20022;-68
2022/07/14 10:51:52;;;;;;;4.38;3.20;;;;;;;24.86;49.04;98585.00;5104159;28;20062;-68
2022/07/14 10:54:30;;;;;;;6.13;3.33;;;;;;;24.56;48.24;98571.94;5120828;28;20087;-67
2022/07/14 10:57:17;;;;;;;4.57;3.50;;;;;;;24.26;48.96;98578.41;5105097;28;20126;-66
2022/07/14 10:59:44;;;;;;;4.38;3.30;;;;;;;24.60;49.47;98575.16;5104808;28;20316;-67
2022/07/14 11:02:13;;;;;;;6.68;3.70;;;;;;;24.72;51.30;98575.78;5104012;28;20040;-66
2022/07/14 11:04:59;;;;;;;8.10;3.60;;;;;;;24.71;50.58;98584.69;5102957;28;20012;-66
2022/07/14 11:08:06;;;;;;;4.18;3.40;;;;;;;24.51;50.69;98584.78;5104056;28;20020;-67
2022/07/14 11:10:32;;;;;;;8.68;4.22;;;;;;;24.29;50.89;98580.75;5103235;28;20158;-64
2022/07/14 11:13:06;;;;;;;4.63;3.33;;;;;;;24.46;52.20;98584.41;5104078;28;20247;-64
2022/07/14 11:15:43;;;;;;;6.00;3.50;;;;;;;24.24;52.10;98589.16;5102651;28;20092;-70
2022/07/14 11:18:28;;;;;;;8.88;3.60;;;;;;;24.00;50.98;98555.28;5102600;28;20027;-70
2022/07/14 11:21:16;;;;;;;4.68;3.75;;;;;;;23.92;51.71;98558.66;5103858;28;20061;-70
2022/07/14 11:23:54;;;;;;;4.47;3.05;;;;;;;24.19;50.53;98607.28;5101935;28;20123;-70
2022/07/14 11:26:35;;;;;;;6.45;3.40;;;;;;;23.85;51.13;98614.91;5095364;28;20043;-68
2022/07/14 11:29:05;;;;;;;5.45;3.72;;;;;;;23.77;50.96;98615.59;5103851;28;20035;-70
2022/07/14 11:31:44;;;;;;;5.43;3.92;;;;;;;23.56;52.67;98632.50;5097721;28;20024;-66
2022/07/14 11:37:19;;;;;;;8.50;3.50;;;;;;;23.08;55.83;98657.94;5102975;28;20288;-64
2022/07/14 11:39:45;;;;;;;5.57;2.97;;;;;;;22.50;55.60;98653.44;5104077;28;20030;-62
2022/07/14 11:42:12;;;;;;;4.68;2.80;;;;;;;21.62;57.72;98621.38;5104048;28;20031;-63
2022/07/14 11:44:38;;;;;;;4.88;2.78;;;;;;;22.00;59.50;98658.59;5102106;28;20024;-62